sensor_id;sensor_type;location;lat;lon;timestamp;temperature;humidity
75648;DHT22;64238;51.466;7.260;2022-10-17T00:01:06;25.40;60.50
75648;DHT22;64238;51.466;7.260;2022-10-17T00:03:33;25.40;60.50
75648;DHT22;64238;51.466;7.260;2022-10-17T00:06:03;25.40;60.50
75648;DHT22;64238;51.466;7.260;2022-10-17T00:08:28;25.40;60.60
75648;DHT22;64238;51.466;7.260;2022-10-17T00:11:32;25.40;60.70
75648;DHT22;64238;51.466;7.260;2022-10-17T00:13:53;25.40;60.70
75648;DHT22;64238;51.466;7.260;2022-10-17T00:16:27;25.40;60.40
75648;DHT22;64238;51.466;7.260;2022-10-17T00:18:53;25.40;60.50
75648;DHT22;64238;51.466;7.260;2022-10-17T00:21:19;25.30;60.70
75648;DHT22;64238;51.466;7.260;2022-10-17T00:23:46;25.30;60.50
75648;DHT22;64238;51.466;7.260;2022-10-17T00:26:12;25.40;60.50
75648;DHT22;64238;51.466;7.260;2022-10-17T00:28:38;25.40;60.50
75648;DHT22;64238;51.466;7.260;2022-10-17T00:31:05;25.40;60.70
75648;DHT22;64238;51.466;7.260;2022-10-17T00:33:33;25.30;60.60
75648;DHT22;64238;51.466;7.260;2022-10-17T00:36:11;25.30;60.80
75648;DHT22;64238;51.466;7.260;2022-10-17T00:38:38;25.40;60.60
75648;DHT22;64238;51.466;7.260;2022-10-17T00:41:07;25.40;60.60
75648;DHT22;64238;51.466;7.260;2022-10-17T00:46:21;25.30;60.70
75648;DHT22;64238;51.466;7.260;2022-10-17T00:48:52;25.30;60.80
75648;DHT22;64238;51.466;7.260;2022-10-17T00:51:22;25.40;60.70
75648;DHT22;64238;51.466;7.260;2022-10-17T00:53:49;25.40;60.50
75648;DHT22;64238;51.466;7.260;2022-10-17T00:56:17;25.40;60.50
75648;DHT22;64238;51.466;7.260;2022-10-17T00:58:44;25.40;60.50
75648;DHT22;64238;51.466;7.260;2022-10-17T01:01:09;25.40;60.50
75648;DHT22;64238;51.466;7.260;2022-10-17T01:03:35;25.40;60.60
75648;DHT22;64238;51.466;7.260;2022-10-17T01:06:01;25.30;60.70
75648;DHT22;64238;51.466;7.260;2022-10-17T01:08:29;25.30;60.50
75648;DHT22;64238;51.466;7.260;2022-10-17T01:10:58;25.40;60.60
75648;DHT22;64238;51.466;7.260;2022-10-17T01:13:54;25.40;60.70
75648;DHT22;64238;51.466;7.260;2022-10-17T01:24:41;25.40;60.60
75648;DHT22;64238;51.466;7.260;2022-10-17T01:33:01;25.40;60.70
75648;DHT22;64238;51.466;7.260;2022-10-17T01:35:47;25.40;60.50
75648;DHT22;64238;51.466;7.260;2022-10-17T01:38:22;25.50;60.80
75648;DHT22;64238;51.466;7.260;2022-10-17T01:40:52;25.40;60.50
75648;DHT22;64238;51.466;7.260;2022-10-17T01:43:28;25.40;60.50
75648;DHT22;64238;51.466;7.260;2022-10-17T01:46:03;25.40;60.60
75648;DHT22;64238;51.466;7.260;2022-10-17T01:48:35;25.40;60.70
75648;DHT22;64238;51.466;7.260;2022-10-17T01:51:22;25.30;60.50
75648;DHT22;64238;51.466;7.260;2022-10-17T01:54:02;25.30;60.80
75648;DHT22;64238;51.466;7.260;2022-10-17T01:56:30;25.40;60.80
75648;DHT22;64238;51.466;7.260;2022-10-17T01:59:02;25.40;61.00
75648;DHT22;64238;51.466;7.260;2022-10-17T02:01:29;25.40;60.60
75648;DHT22;64238;51.466;7.260;2022-10-17T02:03:56;25.40;60.60
75648;DHT22;64238;51.466;7.260;2022-10-17T02:06:22;25.40;60.90
75648;DHT22;64238;51.466;7.260;2022-10-17T02:08:49;25.40;60.60
75648;DHT22;64238;51.466;7.260;2022-10-17T02:11:23;25.40;60.90
75648;DHT22;64238;51.466;7.260;2022-10-17T02:27:23;25.40;60.60
75648;DHT22;64238;51.466;7.260;2022-10-17T02:29:59;25.30;60.50
75648;DHT22;64238;51.466;7.260;2022-10-17T02:32:35;25.40;60.80
75648;DHT22;64238;51.466;7.260;2022-10-17T02:35:02;25.40;61.00
75648;DHT22;64238;51.466;7.260;2022-10-17T02:37:30;25.50;60.80
75648;DHT22;64238;51.466;7.260;2022-10-17T02:39:58;25.40;60.60
75648;DHT22;64238;51.466;7.260;2022-10-17T02:42:26;25.40;60.60
75648;DHT22;64238;51.466;7.260;2022-10-17T02:44:53;25.40;60.90
75648;DHT22;64238;51.466;7.260;2022-10-17T02:47:34;25.40;60.60
75648;DHT22;64238;51.466;7.260;2022-10-17T02:50:01;25.50;60.80
75648;DHT22;64238;51.466;7.260;2022-10-17T02:52:34;25.40;60.80
75648;DHT22;64238;51.466;7.260;2022-10-17T02:57:35;25.50;60.60
75648;DHT22;64238;51.466;7.260;2022-10-17T03:00:03;25.40;60.80
75648;DHT22;64238;51.466;7.260;2022-10-17T03:02:44;25.50;60.80
75648;DHT22;64238;51.466;7.260;2022-10-17T03:05:12;25.40;60.60
75648;DHT22;64238;51.466;7.260;2022-10-17T03:07:39;25.40;60.80
75648;DHT22;64238;51.466;7.260;2022-10-17T03:10:05;25.40;60.80
75648;DHT22;64238;51.466;7.260;2022-10-17T03:12:31;25.50;60.60
75648;DHT22;64238;51.466;7.260;2022-10-17T03:14:56;25.50;60.70
75648;DHT22;64238;51.466;7.260;2022-10-17T03:17:22;25.40;60.80
75648;DHT22;64238;51.466;7.260;2022-10-17T03:19:47;25.40;60.90
75648;DHT22;64238;51.466;7.260;2022-10-17T03:22:13;25.40;60.90
75648;DHT22;64238;51.466;7.260;2022-10-17T03:24:38;25.50;60.60
75648;DHT22;64238;51.466;7.260;2022-10-17T03:27:04;25.50;60.70
75648;DHT22;64238;51.466;7.260;2022-10-17T03:29:30;25.50;60.50
75648;DHT22;64238;51.466;7.260;2022-10-17T03:31:55;25.40;60.60
75648;DHT22;64238;51.466;7.260;2022-10-17T03:34:21;25.50;60.60
75648;DHT22;64238;51.466;7.260;2022-10-17T03:36:47;25.50;61.00
75648;DHT22;64238;51.466;7.260;2022-10-17T03:39:12;25.40;60.80
75648;DHT22;64238;51.466;7.260;2022-10-17T03:41:38;25.50;60.70
75648;DHT22;64238;51.466;7.260;2022-10-17T03:44:04;25.40;60.70
75648;DHT22;64238;51.466;7.260;2022-10-17T03:46:29;25.40;60.70
75648;DHT22;64238;51.466;7.260;2022-10-17T03:48:55;25.50;60.90
75648;DHT22;64238;51.466;7.260;2022-10-17T03:51:20;25.50;60.70
75648;DHT22;64238;51.466;7.260;2022-10-17T03:53:46;25.40;60.90
75648;DHT22;64238;51.466;7.260;2022-10-17T03:56:17;25.40;60.80
75648;DHT22;64238;51.466;7.260;2022-10-17T03:58:43;25.50;60.70
75648;DHT22;64238;51.466;7.260;2022-10-17T04:01:10;25.40;60.70
75648;DHT22;64238;51.466;7.260;2022-10-17T04:03:36;25.40;60.70
75648;DHT22;64238;51.466;7.260;2022-10-17T04:06:03;25.40;60.70
75648;DHT22;64238;51.466;7.260;2022-10-17T04:08:29;25.50;60.90
75648;DHT22;64238;51.466;7.260;2022-10-17T04:11:03;25.50;60.80
75648;DHT22;64238;51.466;7.260;2022-10-17T04:13:32;25.40;60.70
75648;DHT22;64238;51.466;7.260;2022-10-17T04:16:06;25.50;60.80
75648;DHT22;64238;51.466;7.260;2022-10-17T04:18:32;25.40;61.10
75648;DHT22;64238;51.466;7.260;2022-10-17T04:21:02;25.50;60.90
75648;DHT22;64238;51.466;7.260;2022-10-17T04:23:28;25.40;61.00
75648;DHT22;64238;51.466;7.260;2022-10-17T04:25:56;25.40;60.80
75648;DHT22;64238;51.466;7.260;2022-10-17T04:28:22;25.50;60.90
75648;DHT22;64238;51.466;7.260;2022-10-17T04:31:03;25.50;60.80
75648;DHT22;64238;51.466;7.260;2022-10-17T04:33:30;25.50;60.90
75648;DHT22;64238;51.466;7.260;2022-10-17T04:36:04;25.50;60.70
75648;DHT22;64238;51.466;7.260;2022-10-17T04:38:31;25.50;60.90
75648;DHT22;64238;51.466;7.260;2022-10-17T04:41:00;25.40;60.70
75648;DHT22;64238;51.466;7.260;2022-10-17T04:43:28;25.50;60.90
75648;DHT22;64238;51.466;7.260;2022-10-17T04:45:53;25.40;61.00
75648;DHT22;64238;51.466;7.260;2022-10-17T04:48:19;25.50;60.70
75648;DHT22;64238;51.466;7.260;2022-10-17T04:51:17;25.40;60.90
75648;DHT22;64238;51.466;7.260;2022-10-17T04:53:43;25.50;60.90
75648;DHT22;64238;51.466;7.260;2022-10-17T04:58:35;25.40;61.00
75648;DHT22;64238;51.466;7.260;2022-10-17T05:01:05;25.40;60.90
75648;DHT22;64238;51.466;7.260;2022-10-17T05:03:31;25.40;60.90
75648;DHT22;64238;51.466;7.260;2022-10-17T05:05:56;25.40;61.00
75648;DHT22;64238;51.466;7.260;2022-10-17T05:08:22;25.40;60.90
75648;DHT22;64238;51.466;7.260;2022-10-17T05:10:47;25.40;61.00
75648;DHT22;64238;51.466;7.260;2022-10-17T05:13:13;25.40;61.30
75648;DHT22;64238;51.466;7.260;2022-10-17T05:15:39;25.50;61.50
75648;DHT22;64238;51.466;7.260;2022-10-17T05:18:05;25.60;61.60
75648;DHT22;64238;51.466;7.260;2022-10-17T05:20:31;25.50;61.80
75648;DHT22;64238;51.466;7.260;2022-10-17T05:23:00;25.50;61.90
75648;DHT22;64238;51.466;7.260;2022-10-17T05:25:26;25.50;62.10
75648;DHT22;64238;51.466;7.260;2022-10-17T05:27:52;25.60;62.20
75648;DHT22;64238;51.466;7.260;2022-10-17T05:30:18;25.50;62.50
75648;DHT22;64238;51.466;7.260;2022-10-17T05:32:44;25.50;62.50
75648;DHT22;64238;51.466;7.260;2022-10-17T05:35:09;25.40;62.50
75648;DHT22;64238;51.466;7.260;2022-10-17T05:37:35;25.60;62.70
75648;DHT22;64238;51.466;7.260;2022-10-17T05:40:01;25.50;62.90
75648;DHT22;64238;51.466;7.260;2022-10-17T05:42:26;25.50;62.90
75648;DHT22;64238;51.466;7.260;2022-10-17T05:44:52;25.50;62.80
75648;DHT22;64238;51.466;7.260;2022-10-17T05:47:18;25.50;63.00
75648;DHT22;64238;51.466;7.260;2022-10-17T05:49:43;25.50;62.70
75648;DHT22;64238;51.466;7.260;2022-10-17T05:52:09;25.50;62.80
75648;DHT22;64238;51.466;7.260;2022-10-17T05:54:34;25.60;63.00
75648;DHT22;64238;51.466;7.260;2022-10-17T05:57:00;25.60;63.10
75648;DHT22;64238;51.466;7.260;2022-10-17T05:59:26;25.60;63.00
75648;DHT22;64238;51.466;7.260;2022-10-17T06:01:52;25.60;63.30
75648;DHT22;64238;51.466;7.260;2022-10-17T06:04:18;25.60;63.20
75648;DHT22;64238;51.466;7.260;2022-10-17T06:06:43;25.60;63.20
75648;DHT22;64238;51.466;7.260;2022-10-17T06:09:09;25.60;63.20
75648;DHT22;64238;51.466;7.260;2022-10-17T06:11:35;25.60;63.30
75648;DHT22;64238;51.466;7.260;2022-10-17T06:14:01;25.60;63.30
75648;DHT22;64238;51.466;7.260;2022-10-17T06:16:26;25.70;63.10
75648;DHT22;64238;51.466;7.260;2022-10-17T06:18:52;25.70;63.20
75648;DHT22;64238;51.466;7.260;2022-10-17T06:21:25;25.70;63.10
75648;DHT22;64238;51.466;7.260;2022-10-17T06:23:51;26.20;62.50
75648;DHT22;64238;51.466;7.260;2022-10-17T06:26:17;26.40;60.80
75648;DHT22;64238;51.466;7.260;2022-10-17T06:28:43;26.40;60.90
75648;DHT22;64238;51.466;7.260;2022-10-17T06:31:11;26.50;60.50
75648;DHT22;64238;51.466;7.260;2022-10-17T06:33:37;26.50;60.70
75648;DHT22;64238;51.466;7.260;2022-10-17T06:36:04;26.30;61.90
75648;DHT22;64238;51.466;7.260;2022-10-17T06:38:30;26.20;62.40
75648;DHT22;64238;51.466;7.260;2022-10-17T06:43:29;26.00;62.80
75648;DHT22;64238;51.466;7.260;2022-10-17T06:45:54;25.90;63.20
75648;DHT22;64238;51.466;7.260;2022-10-17T06:48:20;25.90;63.20
75648;DHT22;64238;51.466;7.260;2022-10-17T06:50:46;26.00;63.60
75648;DHT22;64238;51.466;7.260;2022-10-17T06:53:11;25.90;63.20
75648;DHT22;64238;51.466;7.260;2022-10-17T06:55:37;25.90;63.40
75648;DHT22;64238;51.466;7.260;2022-10-17T06:58:02;25.90;63.40
75648;DHT22;64238;51.466;7.260;2022-10-17T07:00:28;25.90;63.50
75648;DHT22;64238;51.466;7.260;2022-10-17T07:02:54;25.90;63.40
75648;DHT22;64238;51.466;7.260;2022-10-17T07:05:19;25.90;63.50
75648;DHT22;64238;51.466;7.260;2022-10-17T07:07:45;25.90;63.40
75648;DHT22;64238;51.466;7.260;2022-10-17T07:10:11;25.90;63.40
75648;DHT22;64238;51.466;7.260;2022-10-17T07:12:36;25.90;63.40
75648;DHT22;64238;51.466;7.260;2022-10-17T07:15:03;25.90;63.40
75648;DHT22;64238;51.466;7.260;2022-10-17T07:17:29;25.90;63.40
75648;DHT22;64238;51.466;7.260;2022-10-17T07:19:55;26.00;63.30
75648;DHT22;64238;51.466;7.260;2022-10-17T07:22:20;25.90;63.30
75648;DHT22;64238;51.466;7.260;2022-10-17T07:24:46;26.00;63.50
75648;DHT22;64238;51.466;7.260;2022-10-17T07:27:12;25.90;63.40
75648;DHT22;64238;51.466;7.260;2022-10-17T07:29:38;25.90;63.60
75648;DHT22;64238;51.466;7.260;2022-10-17T07:32:04;25.90;63.60
75648;DHT22;64238;51.466;7.260;2022-10-17T07:34:33;26.00;63.70
75648;DHT22;64238;51.466;7.260;2022-10-17T07:36:59;26.00;63.70
75648;DHT22;64238;51.466;7.260;2022-10-17T07:39:24;26.00;63.50
75648;DHT22;64238;51.466;7.260;2022-10-17T07:41:50;26.10;63.50
75648;DHT22;64238;51.466;7.260;2022-10-17T07:44:15;26.00;63.40
75648;DHT22;64238;51.466;7.260;2022-10-17T07:46:41;26.00;63.70
75648;DHT22;64238;51.466;7.260;2022-10-17T07:49:07;26.00;63.50
75648;DHT22;64238;51.466;7.260;2022-10-17T07:51:32;26.00;63.60
75648;DHT22;64238;51.466;7.260;2022-10-17T07:53:58;26.00;63.50
75648;DHT22;64238;51.466;7.260;2022-10-17T07:56:24;26.00;63.60
75648;DHT22;64238;51.466;7.260;2022-10-17T07:58:51;26.00;63.50
75648;DHT22;64238;51.466;7.260;2022-10-17T08:01:17;26.00;63.40
75648;DHT22;64238;51.466;7.260;2022-10-17T08:03:44;26.10;63.50
75648;DHT22;64238;51.466;7.260;2022-10-17T08:06:10;26.20;63.40
75648;DHT22;64238;51.466;7.260;2022-10-17T08:08:36;26.10;63.50
75648;DHT22;64238;51.466;7.260;2022-10-17T08:11:04;26.10;63.40
75648;DHT22;64238;51.466;7.260;2022-10-17T08:13:30;26.20;63.50
75648;DHT22;64238;51.466;7.260;2022-10-17T08:16:00;26.20;63.70
75648;DHT22;64238;51.466;7.260;2022-10-17T08:18:26;26.10;63.60
75648;DHT22;64238;51.466;7.260;2022-10-17T08:20:51;26.20;63.50
75648;DHT22;64238;51.466;7.260;2022-10-17T08:23:17;26.20;63.50
75648;DHT22;64238;51.466;7.260;2022-10-17T08:25:43;26.10;63.50
75648;DHT22;64238;51.466;7.260;2022-10-17T08:28:08;26.20;63.30
75648;DHT22;64238;51.466;7.260;2022-10-17T08:30:34;26.20;63.40
75648;DHT22;64238;51.466;7.260;2022-10-17T08:32:59;26.20;63.60
75648;DHT22;64238;51.466;7.260;2022-10-17T08:35:25;26.20;63.60
75648;DHT22;64238;51.466;7.260;2022-10-17T08:37:50;26.30;63.40
75648;DHT22;64238;51.466;7.260;2022-10-17T08:40:21;26.30;63.60
75648;DHT22;64238;51.466;7.260;2022-10-17T08:43:10;26.30;63.40
75648;DHT22;64238;51.466;7.260;2022-10-17T08:46:00;26.30;63.70
75648;DHT22;64238;51.466;7.260;2022-10-17T08:48:31;26.20;63.30
75648;DHT22;64238;51.466;7.260;2022-10-17T08:51:06;26.30;63.40
75648;DHT22;64238;51.466;7.260;2022-10-17T08:53:42;26.30;63.70
75648;DHT22;64238;51.466;7.260;2022-10-17T08:56:15;26.30;63.40
75648;DHT22;64238;51.466;7.260;2022-10-17T08:58:41;26.30;63.70
75648;DHT22;64238;51.466;7.260;2022-10-17T09:04:33;26.40;62.60
75648;DHT22;64238;51.466;7.260;2022-10-17T09:18:34;26.30;63.40
75648;DHT22;64238;51.466;7.260;2022-10-17T09:23:49;26.40;62.50
75648;DHT22;64238;51.466;7.260;2022-10-17T09:26:15;26.40;62.50
75648;DHT22;64238;51.466;7.260;2022-10-17T09:28:42;26.40;62.80
75648;DHT22;64238;51.466;7.260;2022-10-17T09:31:31;26.30;63.90
75648;DHT22;64238;51.466;7.260;2022-10-17T09:34:01;26.40;62.70
75648;DHT22;64238;51.466;7.260;2022-10-17T09:36:34;26.50;62.70
75648;DHT22;64238;51.466;7.260;2022-10-17T09:39:03;26.40;62.80
75648;DHT22;64238;51.466;7.260;2022-10-17T09:41:31;26.40;62.80
75648;DHT22;64238;51.466;7.260;2022-10-17T09:44:23;26.50;62.70
75648;DHT22;64238;51.466;7.260;2022-10-17T09:49:42;26.50;62.90
75648;DHT22;64238;51.466;7.260;2022-10-17T09:52:32;26.50;62.90
75648;DHT22;64238;51.466;7.260;2022-10-17T09:55:19;26.50;63.00
75648;DHT22;64238;51.466;7.260;2022-10-17T09:58:02;26.50;63.10
75648;DHT22;64238;51.466;7.260;2022-10-17T10:00:31;26.50;62.80
75648;DHT22;64238;51.466;7.260;2022-10-17T10:05:35;26.60;62.90
75648;DHT22;64238;51.466;7.260;2022-10-17T10:08:05;26.60;62.70
75648;DHT22;64238;51.466;7.260;2022-10-17T10:10:35;26.50;62.80
75648;DHT22;64238;51.466;7.260;2022-10-17T10:13:23;26.50;62.90
75648;DHT22;64238;51.466;7.260;2022-10-17T10:18:33;26.50;63.00
75648;DHT22;64238;51.466;7.260;2022-10-17T10:21:11;26.60;62.90
75648;DHT22;64238;51.466;7.260;2022-10-17T10:23:40;26.60;62.80
75648;DHT22;64238;51.466;7.260;2022-10-17T10:26:32;26.60;63.00
75648;DHT22;64238;51.466;7.260;2022-10-17T10:29:03;26.50;62.90
75648;DHT22;64238;51.466;7.260;2022-10-17T10:31:36;26.50;62.80
75648;DHT22;64238;51.466;7.260;2022-10-17T10:34:19;26.50;62.80
75648;DHT22;64238;51.466;7.260;2022-10-17T10:36:56;26.60;62.90
75648;DHT22;64238;51.466;7.260;2022-10-17T10:41:59;26.50;62.90
75648;DHT22;64238;51.466;7.260;2022-10-17T10:44:27;26.50;62.90
75648;DHT22;64238;51.466;7.260;2022-10-17T10:47:19;26.60;62.90
75648;DHT22;64238;51.466;7.260;2022-10-17T10:49:45;26.60;62.80
75648;DHT22;64238;51.466;7.260;2022-10-17T10:53:13;26.60;62.80
75648;DHT22;64238;51.466;7.260;2022-10-17T10:55:31;26.50;62.70
75648;DHT22;64238;51.466;7.260;2022-10-17T10:58:31;26.60;62.80
75648;DHT22;64238;51.466;7.260;2022-10-17T11:01:02;26.50;62.80
75648;DHT22;64238;51.466;7.260;2022-10-17T11:03:34;26.60;62.60
75648;DHT22;64238;51.466;7.260;2022-10-17T11:06:10;26.60;62.70
75648;DHT22;64238;51.466;7.260;2022-10-17T11:09:04;26.60;62.80
75648;DHT22;64238;51.466;7.260;2022-10-17T11:11:35;26.70;62.60
75648;DHT22;64238;51.466;7.260;2022-10-17T11:20:11;26.60;62.70
75648;DHT22;64238;51.466;7.260;2022-10-17T11:22:43;26.60;62.70
75648;DHT22;64238;51.466;7.260;2022-10-17T11:27:36;26.60;62.90
75648;DHT22;64238;51.466;7.260;2022-10-17T11:30:03;26.60;62.80
75648;DHT22;64238;51.466;7.260;2022-10-17T11:35:22;26.60;62.90
75648;DHT22;64238;51.466;7.260;2022-10-17T11:38:13;26.60;62.90
75648;DHT22;64238;51.466;7.260;2022-10-17T11:40:43;26.60;62.90
75648;DHT22;64238;51.466;7.260;2022-10-17T11:45:55;26.50;62.90
75648;DHT22;64238;51.466;7.260;2022-10-17T11:51:06;26.60;63.00
75648;DHT22;64238;51.466;7.260;2022-10-17T11:53:43;26.60;62.90
75648;DHT22;64238;51.466;7.260;2022-10-17T11:56:10;26.60;63.10
75648;DHT22;64238;51.466;7.260;2022-10-17T11:58:49;26.60;63.10
75648;DHT22;64238;51.466;7.260;2022-10-17T12:01:40;26.70;62.90
75648;DHT22;64238;51.466;7.260;2022-10-17T12:04:31;26.60;63.10
75648;DHT22;64238;51.466;7.260;2022-10-17T12:06:58;26.60;63.00
75648;DHT22;64238;51.466;7.260;2022-10-17T12:11:58;26.60;63.20
75648;DHT22;64238;51.466;7.260;2022-10-17T12:14:44;26.70;63.10
75648;DHT22;64238;51.466;7.260;2022-10-17T12:17:30;26.60;63.20
75648;DHT22;64238;51.466;7.260;2022-10-17T12:22:52;26.60;63.30
75648;DHT22;64238;51.466;7.260;2022-10-17T12:25:19;26.70;63.10
75648;DHT22;64238;51.466;7.260;2022-10-17T12:27:47;26.60;63.00
75648;DHT22;64238;51.466;7.260;2022-10-17T12:30:20;26.70;63.30
75648;DHT22;64238;51.466;7.260;2022-10-17T12:33:13;26.60;63.10
75648;DHT22;64238;51.466;7.260;2022-10-17T12:35:41;26.70;63.20
75648;DHT22;64238;51.466;7.260;2022-10-17T12:48:58;26.60;63.40
75648;DHT22;64238;51.466;7.260;2022-10-17T12:53:58;26.70;63.60
75648;DHT22;64238;51.466;7.260;2022-10-17T12:56:45;26.60;63.50
75648;DHT22;64238;51.466;7.260;2022-10-17T12:59:24;26.70;63.60
75648;DHT22;64238;51.466;7.260;2022-10-17T13:01:55;26.70;63.70
75648;DHT22;64238;51.466;7.260;2022-10-17T13:04:21;26.70;63.60
75648;DHT22;64238;51.466;7.260;2022-10-17T13:06:51;26.70;63.50
75648;DHT22;64238;51.466;7.260;2022-10-17T13:09:37;26.70;63.90
75648;DHT22;64238;51.466;7.260;2022-10-17T13:12:12;26.70;64.00
75648;DHT22;64238;51.466;7.260;2022-10-17T13:14:40;26.70;64.00
75648;DHT22;64238;51.466;7.260;2022-10-17T13:17:21;26.70;64.10
75648;DHT22;64238;51.466;7.260;2022-10-17T13:19:46;26.60;64.10
75648;DHT22;64238;51.466;7.260;2022-10-17T13:24:44;26.70;64.00
75648;DHT22;64238;51.466;7.260;2022-10-17T13:27:28;26.60;64.10
75648;DHT22;64238;51.466;7.260;2022-10-17T13:29:56;26.70;64.30
75648;DHT22;64238;51.466;7.260;2022-10-17T13:32:24;26.70;64.30
75648;DHT22;64238;51.466;7.260;2022-10-17T13:35:11;26.70;64.20
75648;DHT22;64238;51.466;7.260;2022-10-17T13:37:40;26.60;64.30
75648;DHT22;64238;51.466;7.260;2022-10-17T13:40:06;26.70;64.40
75648;DHT22;64238;51.466;7.260;2022-10-17T13:42:39;26.70;64.50
75648;DHT22;64238;51.466;7.260;2022-10-17T13:45:28;26.70;64.60
75648;DHT22;64238;51.466;7.260;2022-10-17T13:47:54;26.70;64.40
75648;DHT22;64238;51.466;7.260;2022-10-17T13:50:35;26.60;64.50
75648;DHT22;64238;51.466;7.260;2022-10-17T13:53:50;26.70;64.60
75648;DHT22;64238;51.466;7.260;2022-10-17T13:58:49;26.70;64.50
75648;DHT22;64238;51.466;7.260;2022-10-17T14:01:17;26.60;64.70
75648;DHT22;64238;51.466;7.260;2022-10-17T14:03:44;26.70;64.70
75648;DHT22;64238;51.466;7.260;2022-10-17T14:09:02;26.70;65.00
75648;DHT22;64238;51.466;7.260;2022-10-17T14:13:58;26.70;65.20
75648;DHT22;64238;51.466;7.260;2022-10-17T14:16:25;26.60;65.10
75648;DHT22;64238;51.466;7.260;2022-10-17T14:18:52;26.70;65.00
75648;DHT22;64238;51.466;7.260;2022-10-17T14:21:21;26.60;65.30
75648;DHT22;64238;51.466;7.260;2022-10-17T14:23:48;26.70;65.10
75648;DHT22;64238;51.466;7.260;2022-10-17T14:28:45;26.60;65.50
75648;DHT22;64238;51.466;7.260;2022-10-17T14:31:18;26.60;65.60
75648;DHT22;64238;51.466;7.260;2022-10-17T14:33:46;26.60;65.50
75648;DHT22;64238;51.466;7.260;2022-10-17T14:36:12;26.50;65.60
75648;DHT22;64238;51.466;7.260;2022-10-17T14:38:44;26.50;65.40
75648;DHT22;64238;51.466;7.260;2022-10-17T14:41:34;26.60;65.80
75648;DHT22;64238;51.466;7.260;2022-10-17T14:44:04;26.50;65.60
75648;DHT22;64238;51.466;7.260;2022-10-17T14:46:31;26.50;65.90
75648;DHT22;64238;51.466;7.260;2022-10-17T14:49:06;26.50;65.80
75648;DHT22;64238;51.466;7.260;2022-10-17T14:51:33;26.50;65.70
75648;DHT22;64238;51.466;7.260;2022-10-17T14:54:25;26.60;65.70
75648;DHT22;64238;51.466;7.260;2022-10-17T14:56:52;26.50;66.00
75648;DHT22;64238;51.466;7.260;2022-10-17T14:59:18;26.50;65.90
75648;DHT22;64238;51.466;7.260;2022-10-17T15:01:48;26.50;65.80
75648;DHT22;64238;51.466;7.260;2022-10-17T15:04:15;26.50;66.10
75648;DHT22;64238;51.466;7.260;2022-10-17T15:06:40;26.50;66.10
75648;DHT22;64238;51.466;7.260;2022-10-17T15:09:06;26.50;66.00
75648;DHT22;64238;51.466;7.260;2022-10-17T15:11:32;26.50;66.20
75648;DHT22;64238;51.466;7.260;2022-10-17T15:13:57;26.50;66.10
75648;DHT22;64238;51.466;7.260;2022-10-17T15:16:25;26.50;66.30
75648;DHT22;64238;51.466;7.260;2022-10-17T15:18:52;26.40;66.00
75648;DHT22;64238;51.466;7.260;2022-10-17T15:21:20;26.50;66.30
75648;DHT22;64238;51.466;7.260;2022-10-17T15:23:46;26.40;66.20
75648;DHT22;64238;51.466;7.260;2022-10-17T15:26:23;26.40;66.20
75648;DHT22;64238;51.466;7.260;2022-10-17T15:28:50;26.40;66.20
75648;DHT22;64238;51.466;7.260;2022-10-17T15:31:19;26.50;66.20
75648;DHT22;64238;51.466;7.260;2022-10-17T15:33:46;26.50;66.40
75648;DHT22;64238;51.466;7.260;2022-10-17T15:36:29;26.40;66.40
75648;DHT22;64238;51.466;7.260;2022-10-17T15:38:57;26.50;66.60
75648;DHT22;64238;51.466;7.260;2022-10-17T15:41:25;26.40;66.40
75648;DHT22;64238;51.466;7.260;2022-10-17T15:43:51;26.40;66.70
75648;DHT22;64238;51.466;7.260;2022-10-17T15:46:19;26.40;66.60
75648;DHT22;64238;51.466;7.260;2022-10-17T15:48:46;26.40;66.70
75648;DHT22;64238;51.466;7.260;2022-10-17T15:51:11;26.40;66.70
75648;DHT22;64238;51.466;7.260;2022-10-17T15:53:37;26.40;66.80
75648;DHT22;64238;51.466;7.260;2022-10-17T15:56:04;26.30;67.90
75648;DHT22;64238;51.466;7.260;2022-10-17T15:58:39;26.40;66.90
75648;DHT22;64238;51.466;7.260;2022-10-17T16:01:05;26.30;67.80
75648;DHT22;64238;51.466;7.260;2022-10-17T16:03:32;26.40;66.70
75648;DHT22;64238;51.466;7.260;2022-10-17T16:05:58;26.40;66.80
75648;DHT22;64238;51.466;7.260;2022-10-17T16:08:23;26.30;67.70
75648;DHT22;64238;51.466;7.260;2022-10-17T16:10:50;26.30;67.90
75648;DHT22;64238;51.466;7.260;2022-10-17T16:13:20;26.30;67.80
75648;DHT22;64238;51.466;7.260;2022-10-17T16:15:46;26.40;66.60
75648;DHT22;64238;51.466;7.260;2022-10-17T16:18:12;26.30;67.50
75648;DHT22;64238;51.466;7.260;2022-10-17T16:20:38;26.30;67.40
75648;DHT22;64238;51.466;7.260;2022-10-17T16:23:04;26.30;67.50
75648;DHT22;64238;51.466;7.260;2022-10-17T16:25:31;26.30;67.40
75648;DHT22;64238;51.466;7.260;2022-10-17T16:27:58;26.40;66.40
75648;DHT22;64238;51.466;7.260;2022-10-17T16:30:27;26.30;67.20
75648;DHT22;64238;51.466;7.260;2022-10-17T16:32:54;26.20;67.50
75648;DHT22;64238;51.466;7.260;2022-10-17T16:35:25;26.30;67.40
75648;DHT22;64238;51.466;7.260;2022-10-17T16:37:51;26.30;67.30
75648;DHT22;64238;51.466;7.260;2022-10-17T16:40:17;26.30;67.30
75648;DHT22;64238;51.466;7.260;2022-10-17T16:42:43;26.30;67.30
75648;DHT22;64238;51.466;7.260;2022-10-17T16:45:17;26.30;67.50
75648;DHT22;64238;51.466;7.260;2022-10-17T16:47:44;26.30;67.30
75648;DHT22;64238;51.466;7.260;2022-10-17T16:50:09;26.20;67.10
75648;DHT22;64238;51.466;7.260;2022-10-17T16:52:35;26.30;67.10
75648;DHT22;64238;51.466;7.260;2022-10-17T16:55:00;26.20;67.20
75648;DHT22;64238;51.466;7.260;2022-10-17T16:57:26;26.20;67.40
75648;DHT22;64238;51.466;7.260;2022-10-17T16:59:51;26.20;67.30
75648;DHT22;64238;51.466;7.260;2022-10-17T17:02:17;26.20;67.00
75648;DHT22;64238;51.466;7.260;2022-10-17T17:04:43;26.20;67.10
75648;DHT22;64238;51.466;7.260;2022-10-17T17:07:09;26.20;67.00
75648;DHT22;64238;51.466;7.260;2022-10-17T17:09:34;26.20;67.10
75648;DHT22;64238;51.466;7.260;2022-10-17T17:12:00;26.20;67.20
75648;DHT22;64238;51.466;7.260;2022-10-17T17:14:25;26.20;67.20
75648;DHT22;64238;51.466;7.260;2022-10-17T17:16:51;26.20;66.90
75648;DHT22;64238;51.466;7.260;2022-10-17T17:19:17;26.20;67.10
75648;DHT22;64238;51.466;7.260;2022-10-17T17:21:42;26.10;67.00
75648;DHT22;64238;51.466;7.260;2022-10-17T17:24:14;26.20;67.10
75648;DHT22;64238;51.466;7.260;2022-10-17T17:26:40;26.10;67.20
75648;DHT22;64238;51.466;7.260;2022-10-17T17:29:05;26.20;67.20
75648;DHT22;64238;51.466;7.260;2022-10-17T17:31:33;26.10;67.10
75648;DHT22;64238;51.466;7.260;2022-10-17T17:33:59;26.20;67.00
75648;DHT22;64238;51.466;7.260;2022-10-17T17:36:31;26.20;66.90
75648;DHT22;64238;51.466;7.260;2022-10-17T17:38:59;26.20;67.10
75648;DHT22;64238;51.466;7.260;2022-10-17T17:41:25;26.20;67.00